Time;durP1;ratioP1;P1;durP2;ratioP2;P2;SDS_P1;SDS_P2;PMS_P1;PMS_P2;Temp;Humidity;BMP_temperature;BMP_pressure;BME280_temperature;BME280_humidity;BME280_pressure;Samples;Min_cycle;Max_cycle;Signal;HPM_P1;HPM_P2
2021/10/26 00:01:39;;;;;;;38.47;18.70;;;;;;;10.69;96.29;101848.03;4815811;29;20074;-85
2021/10/26 00:04:07;;;;;;;28.95;17.65;;;;;;;10.70;96.50;101848.91;4862786;29;20240;-84
2021/10/26 00:06:34;;;;;;;31.60;17.38;;;;;;;10.69;96.45;101842.78;4835329;29;20065;-84
2021/10/26 00:08:59;;;;;;;33.30;17.10;;;;;;;10.69;96.65;101845.41;4849666;29;20104;-84
2021/10/26 00:11:25;;;;;;;30.20;16.13;;;;;;;10.70;96.79;101851.53;4849099;29;20048;-84
2021/10/26 00:13:50;;;;;;;33.33;17.40;;;;;;;10.68;96.43;101853.31;4850986;29;20026;-84
2021/10/26 00:16:16;;;;;;;31.35;16.08;;;;;;;10.68;96.52;101856.78;4837385;29;20217;-84
2021/10/26 00:18:41;;;;;;;25.52;15.10;;;;;;;10.68;96.47;101850.72;4853274;29;20045;-84
2021/10/26 00:21:06;;;;;;;28.20;15.52;;;;;;;10.67;96.42;101857.69;4853468;29;20055;-84
2021/10/26 00:23:32;;;;;;;28.65;15.13;;;;;;;10.68;96.59;101855.94;4837260;29;20060;-84
2021/10/26 00:25:58;;;;;;;29.65;15.82;;;;;;;10.67;96.69;101854.22;4851872;29;20064;-84
2021/10/26 00:28:24;;;;;;;33.15;14.60;;;;;;;10.66;96.44;101858.59;4838042;29;20045;-84
2021/10/26 00:30:49;;;;;;;37.88;15.05;;;;;;;10.67;96.62;101856.84;4854605;29;20108;-84
2021/10/26 00:33:15;;;;;;;26.20;13.43;;;;;;;10.65;96.34;101853.38;4855052;29;20037;-84
2021/10/26 00:35:40;;;;;;;28.33;13.23;;;;;;;10.66;96.29;101862.94;4854660;29;20052;-84
2021/10/26 00:38:06;;;;;;;29.10;13.00;;;;;;;10.65;96.60;101864.72;4839425;29;20065;-84
2021/10/26 00:40:31;;;;;;;28.05;13.75;;;;;;;10.65;96.56;101862.09;4839560;29;20076;-84
2021/10/26 00:42:57;;;;;;;29.73;13.00;;;;;;;10.67;96.63;101875.16;4855244;29;20403;-84
2021/10/26 00:45:22;;;;;;;23.30;13.48;;;;;;;10.65;96.50;101872.59;4854264;29;20068;-84
2021/10/26 00:47:48;;;;;;;27.08;12.95;;;;;;;10.65;96.45;101875.19;4854442;29;20329;-84
2021/10/26 00:50:13;;;;;;;23.63;12.45;;;;;;;10.64;96.46;101878.75;4855063;29;20060;-84
2021/10/26 00:52:39;;;;;;;25.50;12.85;;;;;;;10.65;96.64;101882.22;4854429;29;20404;-84
2021/10/26 00:55:05;;;;;;;28.35;12.70;;;;;;;10.65;96.47;101879.59;4853914;29;20041;-84
2021/10/26 00:57:31;;;;;;;29.58;11.88;;;;;;;10.64;96.47;101883.97;4836012;29;20052;-84
2021/10/26 00:59:56;;;;;;;27.38;11.95;;;;;;;10.64;96.50;101883.97;4839162;29;20057;-84
2021/10/26 01:02:21;;;;;;;20.48;10.50;;;;;;;10.63;96.45;101884.00;4852389;29;20059;-84
2021/10/26 01:04:47;;;;;;;21.55;11.57;;;;;;;10.63;96.59;101887.47;4831754;29;20040;-84
2021/10/26 01:07:12;;;;;;;24.90;11.57;;;;;;;10.63;96.47;101886.63;4855039;29;20179;-84
2021/10/26 01:09:38;;;;;;;21.55;10.90;;;;;;;10.63;96.44;101884.00;4853798;29;20045;-84
2021/10/26 01:12:07;;;;;;;25.63;11.15;;;;;;;10.62;96.29;101885.75;4834581;29;20047;-84
2021/10/26 01:14:32;;;;;;;23.00;11.07;;;;;;;10.61;96.59;101888.44;4862717;29;20089;-84
2021/10/26 01:17:11;;;;;;;26.35;11.40;;;;;;;10.59;96.39;101884.97;4839214;29;20037;-84
2021/10/26 01:19:54;;;;;;;24.33;11.20;;;;;;;10.57;96.20;101890.25;4829436;29;20493;-84
2021/10/26 01:22:22;;;;;;;20.67;10.63;;;;;;;10.55;96.38;101882.44;4840172;29;20045;-84
2021/10/26 01:24:47;;;;;;;22.08;12.25;;;;;;;10.53;96.28;101873.75;4838751;29;20383;-84
2021/10/26 01:27:13;;;;;;;21.40;10.85;;;;;;;10.53;95.94;101875.50;4834863;29;20109;-84
2021/10/26 01:29:38;;;;;;;21.63;11.57;;;;;;;10.48;96.06;101880.84;4851128;29;20050;-84
2021/10/26 01:32:05;;;;;;;21.05;11.65;;;;;;;10.47;96.02;101886.13;4838657;29;20033;-84
2021/10/26 01:34:30;;;;;;;22.38;12.15;;;;;;;10.46;95.90;101885.28;4838638;29;20068;-84
2021/10/26 01:37:03;;;;;;;21.13;12.35;;;;;;;10.45;96.25;101874.81;4853750;29;20025;-84
2021/10/26 01:39:29;;;;;;;22.05;12.52;;;;;;;10.44;96.20;101880.94;4854112;29;20037;-84
2021/10/26 01:41:55;;;;;;;25.48;12.80;;;;;;;10.43;96.00;101880.09;4839035;29;20359;-85
2021/10/26 01:44:20;;;;;;;31.65;14.20;;;;;;;10.42;96.25;101882.75;4870385;29;20045;-84
2021/10/26 01:46:46;;;;;;;25.27;14.15;;;;;;;10.41;96.19;101876.66;4853558;29;20081;-84
2021/10/26 01:49:11;;;;;;;23.15;13.50;;;;;;;10.39;96.34;101881.06;4853835;29;20278;-84
2021/10/26 01:51:37;;;;;;;31.85;12.68;;;;;;;10.37;95.95;101886.34;4854295;29;20249;-84
2021/10/26 01:54:02;;;;;;;28.63;13.60;;;;;;;10.34;96.08;101886.41;4854217;29;20041;-84
2021/10/26 01:56:28;;;;;;;22.23;12.05;;;;;;;10.31;96.12;101878.59;4853297;29;20251;-84
2021/10/26 01:58:53;;;;;;;27.52;13.95;;;;;;;10.30;96.10;101889.97;4853752;29;20038;-84
2021/10/26 02:04:38;;;;;;;22.38;12.98;;;;;;;10.27;96.27;101902.25;4849340;29;20041;-83
2021/10/26 02:07:04;;;;;;;26.67;13.98;;;;;;;10.23;95.92;101896.22;4853035;29;20397;-84
2021/10/26 02:09:30;;;;;;;27.23;13.68;;;;;;;10.21;95.90;101905.03;4849791;29;20237;-83
2021/10/26 02:11:56;;;;;;;30.05;13.93;;;;;;;10.21;96.13;101898.03;4849898;29;20085;-83
2021/10/26 02:14:21;;;;;;;34.30;16.67;;;;;;;10.19;95.91;101891.97;4850304;29;20333;-83
2021/10/26 02:16:47;;;;;;;27.02;15.40;;;;;;;10.17;96.05;101894.63;4850048;29;20041;-83
2021/10/26 02:19:12;;;;;;;30.45;14.98;;;;;;;10.16;95.92;101892.88;4841883;29;20039;-83
2021/10/26 02:21:37;;;;;;;29.35;14.65;;;;;;;10.16;96.00;101900.72;4850010;29;20360;-83
2021/10/26 02:24:03;;;;;;;28.73;14.70;;;;;;;10.14;96.16;101892.06;4850294;29;20033;-83
2021/10/26 02:26:29;;;;;;;33.45;15.93;;;;;;;10.17;96.17;101896.38;4849905;29;20046;-83
2021/10/26 02:28:54;;;;;;;31.05;14.40;;;;;;;10.17;96.52;101899.84;4834877;29;20049;-83
2021/10/26 02:31:19;;;;;;;23.38;13.90;;;;;;;10.14;96.19;101894.69;4865724;29;20049;-83
2021/10/26 02:33:45;;;;;;;29.10;13.95;;;;;;;10.12;96.30;101895.63;4842698;29;20041;-83
2021/10/26 02:36:10;;;;;;;25.15;14.60;;;;;;;10.12;96.42;101895.63;4849601;29;20045;-83
2021/10/26 02:38:36;;;;;;;28.13;13.75;;;;;;;10.12;96.40;101900.84;4849248;29;20037;-83
2021/10/26 02:41:01;;;;;;;27.00;13.20;;;;;;;10.12;96.48;101898.22;4834486;29;20033;-83
2021/10/26 02:43:29;;;;;;;28.80;14.23;;;;;;;10.10;96.33;101906.13;4849130;29;20047;-83
2021/10/26 02:45:54;;;;;;;31.15;13.95;;;;;;;10.09;96.29;101901.75;4834965;29;20049;-83
2021/10/26 02:48:20;;;;;;;30.42;14.38;;;;;;;10.07;96.39;101907.94;4817517;29;20382;-83
2021/10/26 02:50:45;;;;;;;27.98;12.88;;;;;;;10.05;96.12;101915.81;4842795;29;20045;-83
2021/10/26 02:53:11;;;;;;;25.35;12.77;;;;;;;10.03;96.30;101916.75;4865634;29;20037;-83
2021/10/26 02:55:36;;;;;;;26.08;12.07;;;;;;;10.03;96.40;101922.84;4865575;29;20379;-83
2021/10/26 02:58:02;;;;;;;21.65;12.10;;;;;;;10.03;96.43;101919.38;4849394;29;20375;-83
2021/10/26 03:00:27;;;;;;;23.02;12.63;;;;;;;10.03;96.23;101920.22;4865559;29;20353;-83
2021/10/26 03:02:53;;;;;;;28.42;13.27;;;;;;;10.03;96.33;101916.75;4848300;29;20044;-83
2021/10/26 03:05:18;;;;;;;20.35;11.70;;;;;;;10.03;96.41;101912.38;4849335;29;20068;-83
2021/10/26 03:07:45;;;;;;;26.67;12.68;;;;;;;10.01;96.31;101913.31;4849407;29;20045;-83
2021/10/26 03:10:10;;;;;;;20.70;11.07;;;;;;;9.99;96.47;101910.72;4849583;29;20037;-83
2021/10/26 03:12:36;;;;;;;28.17;11.05;;;;;;;9.97;96.24;101909.91;4848829;29;20260;-83
2021/10/26 03:15:03;;;;;;;22.05;11.52;;;;;;;9.94;96.27;101905.56;4849105;29;20064;-83
2021/10/26 03:17:28;;;;;;;21.58;11.02;;;;;;;9.93;96.10;101906.47;4849047;29;20105;-83
2021/10/26 03:19:53;;;;;;;31.83;12.48;;;;;;;9.92;96.39;101899.50;4818501;29;20384;-84
2021/10/26 03:22:19;;;;;;;25.63;9.63;;;;;;;9.89;96.30;101894.34;4833904;29;20048;-83
2021/10/26 03:24:44;;;;;;;23.13;10.90;;;;;;;9.87;96.20;101898.75;4849126;29;20362;-83
2021/10/26 03:27:10;;;;;;;22.45;11.50;;;;;;;9.83;95.92;101899.72;4834163;29;20113;-84
2021/10/26 03:29:36;;;;;;;18.77;9.95;;;;;;;9.80;96.16;101900.66;4849063;29;20060;-83
2021/10/26 03:32:01;;;;;;;16.73;10.30;;;;;;;9.80;95.90;101905.88;4833554;29;20029;-82
2021/10/26 03:34:27;;;;;;;21.80;10.57;;;;;;;9.78;96.19;101905.00;4864861;29;20129;-84
2021/10/26 03:36:53;;;;;;;24.65;10.07;;;;;;;9.78;96.04;101909.41;4848843;29;20396;-83
2021/10/26 03:39:18;;;;;;;18.85;10.35;;;;;;;9.77;96.00;101916.38;4864301;29;20040;-83
2021/10/26 03:41:44;;;;;;;16.35;10.18;;;;;;;9.78;96.30;101907.63;4815758;29;20036;-83
2021/10/26 03:44:09;;;;;;;25.40;10.45;;;;;;;9.77;96.28;101912.94;4864492;29;20049;-83
2021/10/26 03:46:35;;;;;;;26.65;11.30;;;;;;;9.77;96.20;101919.00;4848466;29;20344;-83
2021/10/26 03:49:02;;;;;;;28.27;11.40;;;;;;;9.77;96.47;101920.78;4826762;29;20140;-83
2021/10/26 03:51:29;;;;;;;22.38;10.35;;;;;;;9.77;96.48;101916.38;4851558;29;20049;-83
2021/10/26 03:53:54;;;;;;;23.98;11.10;;;;;;;9.77;96.51;101918.16;4852774;29;20338;-83
2021/10/26 03:56:20;;;;;;;27.90;11.13;;;;;;;9.78;96.45;101925.09;4837057;29;20053;-83
2021/10/26 03:58:45;;;;;;;22.63;10.82;;;;;;;9.77;96.42;101931.22;4852677;29;20053;-83
2021/10/26 04:01:11;;;;;;;22.80;11.45;;;;;;;9.76;96.46;101930.34;4868986;29;20329;-83
2021/10/26 04:03:37;;;;;;;22.83;11.18;;;;;;;9.74;96.48;101929.53;4826532;29;20333;-83
2021/10/26 04:06:06;;;;;;;24.23;12.68;;;;;;;9.73;96.70;101926.94;4868898;29;20094;-83
2021/10/26 04:11:28;;;;;;;19.77;12.27;;;;;;;9.74;96.93;101934.75;4854029;29;20049;-83
2021/10/26 04:13:54;;;;;;;26.73;12.60;;;;;;;9.73;96.70;101933.06;4857409;29;20085;-83
2021/10/26 04:16:19;;;;;;;29.38;12.80;;;;;;;9.73;96.66;101934.78;4852130;29;20225;-83
2021/10/26 04:18:45;;;;;;;23.40;13.10;;;;;;;9.75;96.74;101933.00;4843117;29;20053;-83
2021/10/26 04:21:11;;;;;;;30.40;14.40;;;;;;;9.76;96.86;101930.34;4851632;29;20036;-83
2021/10/26 04:23:36;;;;;;;25.65;11.85;;;;;;;9.76;96.80;101940.81;4836672;29;20109;-83
2021/10/26 04:26:03;;;;;;;29.08;13.35;;;;;;;9.76;96.90;101934.72;4836555;29;20045;-83
2021/10/26 04:28:28;;;;;;;24.85;12.80;;;;;;;9.76;96.88;101932.13;4852015;29;20045;-83
2021/10/26 04:30:54;;;;;;;28.65;13.32;;;;;;;9.76;96.87;101935.59;4836617;29;20348;-83
2021/10/26 04:33:19;;;;;;;26.70;14.20;;;;;;;9.74;96.78;101941.75;4840054;29;20049;-83
2021/10/26 04:35:45;;;;;;;30.10;13.15;;;;;;;9.73;96.53;101946.13;4851644;29;20202;-83
2021/10/26 04:38:10;;;;;;;30.73;14.15;;;;;;;9.73;96.91;101945.25;4868528;29;20259;-83
2021/10/26 04:40:35;;;;;;;29.77;13.52;;;;;;;9.70;96.70;101946.19;4836363;29;20041;-83
2021/10/26 04:43:01;;;;;;;33.03;14.23;;;;;;;9.69;96.61;101946.19;4836200;29;20329;-83
2021/10/26 04:45:27;;;;;;;29.23;14.55;;;;;;;9.71;96.74;101954.88;4851801;29;20052;-83
2021/10/26 04:47:53;;;;;;;35.03;13.88;;;;;;;9.70;96.57;101954.03;4851502;29;20037;-83
2021/10/26 04:50:18;;;;;;;30.45;14.15;;;;;;;9.70;96.70;101947.94;4851469;29;20396;-83
2021/10/26 04:52:44;;;;;;;33.50;13.80;;;;;;;9.69;96.91;101951.44;4851896;29;20084;-83
2021/10/26 04:55:09;;;;;;;30.90;14.55;;;;;;;9.66;96.78;101949.75;4867889;29;20038;-83
2021/10/26 04:57:35;;;;;;;26.48;12.93;;;;;;;9.64;96.43;101954.16;4835543;29;20033;-83
2021/10/26 05:00:00;;;;;;;32.10;14.07;;;;;;;9.63;96.79;101965.50;4835941;29;20332;-82
2021/10/26 05:02:26;;;;;;;24.52;13.18;;;;;;;9.60;96.49;101966.44;4849718;29;20040;-83
2021/10/26 05:04:51;;;;;;;26.58;13.38;;;;;;;9.61;96.67;101964.66;4851522;29;20089;-83
2021/10/26 05:07:17;;;;;;;27.15;13.27;;;;;;;9.59;96.06;101961.22;4851473;29;20049;-83
2021/10/26 05:09:43;;;;;;;26.63;12.73;;;;;;;9.59;96.64;101966.44;4851280;29;20048;-83
2021/10/26 05:12:09;;;;;;;29.63;13.68;;;;;;;9.55;96.54;101967.38;4851421;29;20333;-83
2021/10/26 05:14:34;;;;;;;21.30;12.52;;;;;;;9.54;96.39;101970.91;4817780;29;20208;-83
2021/10/26 05:17:20;;;;;;;31.85;12.70;;;;;;;9.52;96.41;101970.91;4850568;29;20363;-85
2021/10/26 05:19:49;;;;;;;26.27;11.52;;;;;;;9.51;96.50;101965.72;4849765;29;20129;-83
2021/10/26 05:22:17;;;;;;;20.65;12.10;;;;;;;9.50;96.34;101967.47;4852044;29;20056;-83
2021/10/26 05:24:42;;;;;;;21.30;12.10;;;;;;;9.48;96.63;101968.38;4833163;29;20037;-83
2021/10/26 05:27:08;;;;;;;23.67;12.27;;;;;;;9.47;96.60;101982.34;4850774;29;20246;-83
2021/10/26 05:29:33;;;;;;;19.92;12.10;;;;;;;9.44;96.35;101983.28;4867182;29;20049;-83
2021/10/26 05:31:58;;;;;;;16.63;11.13;;;;;;;9.44;96.49;101983.28;4850854;29;20033;-83
2021/10/26 05:34:24;;;;;;;24.02;12.15;;;;;;;9.43;96.31;101994.63;4848391;29;20045;-83
2021/10/26 05:36:51;;;;;;;28.17;12.20;;;;;;;9.45;96.60;101997.22;4850709;29;20037;-83
2021/10/26 05:39:16;;;;;;;18.58;10.82;;;;;;;9.45;96.55;101986.75;4867335;29;20048;-83
2021/10/26 05:41:42;;;;;;;23.23;11.48;;;;;;;9.44;96.58;101998.97;4850984;29;20085;-83
2021/10/26 05:44:07;;;;;;;22.13;10.98;;;;;;;9.41;96.49;102001.63;4816642;29;20341;-83
2021/10/26 05:46:33;;;;;;;19.92;10.77;;;;;;;9.40;96.15;102010.34;4844686;29;20044;-83
2021/10/26 05:48:59;;;;;;;20.48;10.48;;;;;;;9.38;96.34;102006.91;4837329;29;20402;-83
2021/10/26 05:51:24;;;;;;;27.95;12.15;;;;;;;9.36;96.28;102009.53;4833348;29;20041;-83
2021/10/26 05:53:50;;;;;;;21.52;10.07;;;;;;;9.34;96.31;102002.63;4860222;29;20056;-83
2021/10/26 05:56:15;;;;;;;20.30;9.80;;;;;;;9.31;96.32;102010.50;4846401;29;20076;-84
2021/10/26 05:58:40;;;;;;;17.30;10.90;;;;;;;9.29;96.00;102002.69;4843789;29;20037;-84
2021/10/26 06:01:06;;;;;;;17.98;10.25;;;;;;;9.29;96.01;101996.59;4816566;29;20069;-83
2021/10/26 06:03:32;;;;;;;19.42;10.43;;;;;;;9.27;96.04;101993.16;4826671;29;20361;-83
2021/10/26 06:05:58;;;;;;;16.42;9.55;;;;;;;9.27;96.24;101995.78;4844487;29;20033;-83
2021/10/26 06:08:23;;;;;;;21.88;10.50;;;;;;;9.26;96.23;101991.41;4827194;29;20048;-83
2021/10/26 06:10:56;;;;;;;21.98;10.13;;;;;;;9.23;96.32;101987.13;4842479;29;20044;-83
2021/10/26 06:13:29;;;;;;;23.83;10.93;;;;;;;9.23;96.16;101994.97;4828066;29;20392;-83
2021/10/26 06:15:54;;;;;;;19.27;9.95;;;;;;;9.20;96.40;102001.13;4843735;29;20234;-84
2021/10/26 06:18:19;;;;;;;20.73;10.43;;;;;;;9.21;96.22;102001.97;4821235;29;20420;-83
2021/10/26 06:20:45;;;;;;;20.00;9.70;;;;;;;9.21;96.01;101994.97;4813032;29;20044;-83
2021/10/26 06:23:11;;;;;;;24.20;10.32;;;;;;;9.23;96.20;101994.97;4817994;29;20243;-83
2021/10/26 06:25:36;;;;;;;19.05;9.82;;;;;;;9.22;96.21;101990.59;4847748;29;20053;-83
2021/10/26 06:28:01;;;;;;;18.40;10.48;;;;;;;9.25;96.23;102000.16;4832730;29;20045;-83
2021/10/26 06:30:27;;;;;;;19.35;10.23;;;;;;;9.22;96.26;102004.56;4844019;29;20037;-83
2021/10/26 06:32:52;;;;;;;22.73;10.15;;;;;;;9.22;96.25;102008.91;4829750;29;20048;-83
2021/10/26 06:35:18;;;;;;;21.52;11.20;;;;;;;9.22;96.35;102001.94;4826939;29;20053;-83
2021/10/26 06:37:44;;;;;;;21.73;10.80;;;;;;;9.26;96.39;101996.66;4826304;29;20033;-83
2021/10/26 06:40:12;;;;;;;20.15;10.65;;;;;;;9.26;96.23;102000.16;4836553;29;20037;-85
2021/10/26 06:42:39;;;;;;;22.65;11.75;;;;;;;9.26;96.49;102005.38;4825485;29;20652;-82
2021/10/26 06:45:04;;;;;;;29.63;11.82;;;;;;;9.29;96.31;102020.13;4823853;29;20294;-83
2021/10/26 06:47:30;;;;;;;29.52;11.68;;;;;;;9.30;96.39;102022.72;4844941;29;20040;-83
2021/10/26 06:49:55;;;;;;;26.13;11.63;;;;;;;9.30;96.46;102021.88;4842008;29;20102;-83
2021/10/26 06:52:21;;;;;;;25.85;12.73;;;;;;;9.31;96.54;102024.44;4830764;29;20048;-83
2021/10/26 06:54:46;;;;;;;29.20;12.68;;;;;;;9.33;96.56;102019.19;4831258;29;20038;-82
2021/10/26 06:57:12;;;;;;;26.13;12.18;;;;;;;9.35;96.73;102022.63;4831976;29;20223;-83
2021/10/26 06:59:37;;;;;;;31.55;12.60;;;;;;;9.36;96.64;102022.63;4850205;29;20072;-84
2021/10/26 07:02:03;;;;;;;27.60;13.15;;;;;;;9.38;96.58;102028.69;4828724;29;20057;-83
2021/10/26 07:04:34;;;;;;;26.30;12.93;;;;;;;9.40;96.75;102024.31;4859714;29;20045;-84
2021/10/26 07:07:00;;;;;;;25.20;12.90;;;;;;;9.42;96.69;102019.03;4841885;29;20052;-82
2021/10/26 07:09:25;;;;;;;34.17;14.00;;;;;;;9.46;96.66;102022.47;4848525;29;20041;-82
2021/10/26 07:11:50;;;;;;;27.73;14.27;;;;;;;9.46;96.66;102023.34;4847128;29;20045;-82
2021/10/26 07:14:16;;;;;;;32.05;14.65;;;;;;;9.51;96.83;102028.47;4862390;29;20041;-82
2021/10/26 07:16:42;;;;;;;33.45;15.10;;;;;;;9.54;96.99;102038.91;4845224;29;20042;-82
2021/10/26 07:19:08;;;;;;;31.75;14.85;;;;;;;9.57;97.08;102036.22;4847502;29;20051;-82
2021/10/26 07:21:33;;;;;;;33.75;15.32;;;;;;;9.59;96.83;102034.44;4846378;29;20034;-82
2021/10/26 07:24:00;;;;;;;34.90;16.30;;;;;;;9.62;97.05;102039.59;4831355;29;20049;-82
2021/10/26 07:26:25;;;;;;;34.47;16.17;;;;;;;9.64;96.95;102037.84;4850429;29;20067;-82
2021/10/26 07:28:54;;;;;;;32.55;15.65;;;;;;;9.66;96.87;102037.81;4852390;29;20270;-82
2021/10/26 07:31:23;;;;;;;35.53;15.88;;;;;;;9.68;97.19;102042.13;4836854;29;20041;-82
2021/10/26 07:33:49;;;;;;;;;;;;;;;9.72;97.23;102049.03;4834021;29;20041;-82
2021/10/26 07:36:15;;;;;;;26.40;14.90;;;;;;;9.75;97.05;102055.94;4836178;29;19958;-83
2021/10/26 07:38:41;;;;;;;31.98;15.57;;;;;;;9.78;97.07;102055.91;4843971;29;20037;-82
2021/10/26 07:41:07;;;;;;;36.08;15.32;;;;;;;9.79;97.15;102053.25;4831020;29;20068;-83
2021/10/26 07:43:35;;;;;;;35.45;14.68;;;;;;;9.80;97.05;102049.78;4838779;29;20337;-82
2021/10/26 07:46:03;;;;;;;30.83;15.43;;;;;;;9.81;97.25;102063.72;4862067;29;20349;-82
2021/10/26 07:48:28;;;;;;;31.33;14.00;;;;;;;9.82;97.20;102062.78;4845688;29;20282;-82
2021/10/26 07:50:58;;;;;;;24.08;13.80;;;;;;;9.84;97.05;102055.81;4844098;29;20033;-82
2021/10/26 07:53:24;;;;;;;25.92;13.80;;;;;;;9.87;97.22;102047.03;4861518;29;20053;-83
2021/10/26 07:55:51;;;;;;;37.53;14.77;;;;;;;9.87;97.20;102054.88;4843403;29;20237;-82
2021/10/26 07:58:17;;;;;;;32.55;14.40;;;;;;;9.89;96.93;102058.31;4830542;29;20041;-83
2021/10/26 08:00:43;;;;;;;30.48;13.70;;;;;;;9.89;97.02;102053.94;4837959;29;20454;-82
2021/10/26 08:03:08;;;;;;;22.83;13.02;;;;;;;9.91;97.06;102054.78;4841001;29;20037;-82
2021/10/26 08:05:33;;;;;;;25.73;12.93;;;;;;;9.94;97.06;102054.72;4840455;29;20038;-83
2021/10/26 08:07:59;;;;;;;26.55;12.75;;;;;;;9.95;96.99;102053.84;4861786;29;20376;-82
2021/10/26 08:10:25;;;;;;;32.33;12.82;;;;;;;9.96;97.08;102052.09;4843374;29;20047;-82
2021/10/26 08:12:51;;;;;;;25.40;12.30;;;;;;;9.97;96.96;102052.06;4858505;29;20412;-82
2021/10/26 08:15:16;;;;;;;31.25;13.38;;;;;;;9.99;96.98;102049.44;4840690;29;20049;-83
2021/10/26 08:17:42;;;;;;;29.92;13.32;;;;;;;10.01;96.69;102052.03;4856488;29;20033;-82
2021/10/26 08:20:08;;;;;;;25.33;13.73;;;;;;;10.04;96.79;102055.44;4830272;29;20053;-83
2021/10/26 08:22:38;;;;;;;28.20;12.32;;;;;;;10.08;96.62;102062.34;4829086;29;20120;-82
2021/10/26 08:25:09;;;;;;;23.40;12.32;;;;;;;10.10;96.88;102073.63;4844048;29;20372;-83
2021/10/26 08:27:35;;;;;;;26.05;12.68;;;;;;;10.13;96.76;102068.34;4833722;29;20038;-83
2021/10/26 08:31:05;;;;;;;24.77;12.73;;;;;;;10.14;96.83;102059.59;4860186;29;20329;-83
2021/10/26 08:33:12;;;;;;;28.63;13.13;;;;;;;10.19;96.97;102059.50;4824178;29;20108;-82
2021/10/26 08:35:38;;;;;;;29.52;14.18;;;;;;;10.22;96.87;102058.56;4845169;29;20057;-83
2021/10/26 08:38:04;;;;;;;28.75;14.15;;;;;;;10.25;97.10;102066.38;4832275;29;20386;-82
2021/10/26 08:40:31;;;;;;;29.35;14.88;;;;;;;10.28;96.96;102063.72;4824719;29;20089;-82
2021/10/26 08:43:00;;;;;;;30.45;15.20;;;;;;;10.29;96.98;102053.19;4819187;29;20453;-83
2021/10/26 08:45:26;;;;;;;32.47;15.40;;;;;;;10.31;96.81;102059.28;4828212;29;20080;-83
2021/10/26 08:47:52;;;;;;;28.90;15.55;;;;;;;10.33;96.86;102064.50;4846261;29;20345;-83
2021/10/26 08:50:20;;;;;;;28.48;15.05;;;;;;;10.36;96.51;102064.44;4833552;29;20089;-83
2021/10/26 08:52:46;;;;;;;24.85;14.70;;;;;;;10.38;96.53;102062.66;4865425;29;20538;-83
2021/10/26 08:55:13;;;;;;;26.70;15.35;;;;;;;10.40;96.52;102058.22;4832897;29;20456;-82
2021/10/26 08:57:38;;;;;;;25.67;14.52;;;;;;;10.42;96.74;102059.06;4833323;29;20049;-83
2021/10/26 09:00:06;;;;;;;27.02;16.88;;;;;;;10.43;96.42;102052.09;4863662;29;20061;-82
2021/10/26 09:02:41;;;;;;;26.08;16.17;;;;;;;10.45;96.64;102055.53;4863656;29;21447;-83
2021/10/26 09:05:09;;;;;;;25.60;15.20;;;;;;;10.45;96.29;102048.53;4844682;29;20116;-83
2021/10/26 09:07:34;;;;;;;29.77;16.25;;;;;;;10.46;96.48;102052.88;4829844;29;20272;-83
2021/10/26 09:10:15;;;;;;;31.67;16.55;;;;;;;10.48;96.41;102053.72;4832853;29;20044;-82
2021/10/26 09:17:58;;;;;;;26.40;16.05;;;;;;;10.53;96.30;102044.00;4837235;29;20051;-83
2021/10/26 09:20:26;;;;;;;32.67;16.85;;;;;;;10.57;96.41;102060.53;4847180;29;20063;-83
2021/10/26 09:22:56;;;;;;;31.83;16.80;;;;;;;10.58;96.37;102067.47;4848007;29;20084;-82
2021/10/26 09:25:53;;;;;;;36.33;16.60;;;;;;;10.60;96.19;102062.19;4822747;29;20340;-83
2021/10/26 09:28:19;;;;;;;27.02;17.00;;;;;;;10.60;96.23;102070.91;4834903;29;20049;-82
2021/10/26 09:30:58;;;;;;;26.95;16.73;;;;;;;10.60;96.08;102070.91;4832630;29;20389;-83
2021/10/26 09:33:38;;;;;;;27.85;16.60;;;;;;;10.60;96.26;102065.69;4842592;29;20041;-83
2021/10/26 09:36:35;;;;;;;34.60;16.90;;;;;;;10.61;96.40;102077.03;4819323;29;20049;-83
2021/10/26 09:39:03;;;;;;;36.28;16.88;;;;;;;10.62;96.42;102078.75;4847807;29;20097;-83
2021/10/26 09:41:31;;;;;;;33.20;16.10;;;;;;;10.62;96.59;102074.38;4863744;29;20044;-83
2021/10/26 09:44:12;;;;;;;29.20;15.98;;;;;;;10.62;96.45;102071.75;4819413;29;20101;-83
2021/10/26 09:46:40;;;;;;;21.65;15.00;;;;;;;10.63;96.49;102065.63;4848056;29;20051;-82
2021/10/26 09:49:20;;;;;;;31.00;15.00;;;;;;;10.63;96.60;102056.91;4831587;29;20040;-83
2021/10/26 09:51:45;;;;;;;23.15;14.68;;;;;;;10.64;96.73;102056.88;4849002;29;20041;-83
2021/10/26 09:54:16;;;;;;;23.83;13.50;;;;;;;10.66;96.73;102047.22;4837642;29;20029;-83
2021/10/26 09:57:00;;;;;;;23.00;14.20;;;;;;;10.68;97.17;102055.91;4850327;29;20519;-82
2021/10/26 09:59:26;;;;;;;26.05;13.82;;;;;;;10.71;97.16;102053.22;4834770;29;20045;-83
2021/10/26 10:01:52;;;;;;;24.25;14.45;;;;;;;10.76;97.15;102053.13;4840452;29;20055;-83
2021/10/26 10:04:32;;;;;;;27.10;13.68;;;;;;;10.78;97.48;102046.06;4849756;29;20033;-82
2021/10/26 10:06:58;;;;;;;26.27;14.52;;;;;;;10.82;97.36;102044.25;4829117;29;20045;-83
2021/10/26 10:09:23;;;;;;;22.17;13.55;;;;;;;10.83;97.66;102043.38;4828272;29;20049;-83
2021/10/26 10:12:04;;;;;;;29.38;15.07;;;;;;;10.85;97.33;102046.81;4830757;29;20045;-82
2021/10/26 10:14:30;;;;;;;28.27;14.32;;;;;;;10.88;97.63;102052.84;4828318;29;20041;-83
2021/10/26 10:16:55;;;;;;;23.65;15.32;;;;;;;10.91;97.68;102052.78;4843531;29;20041;-83
2021/10/26 10:19:21;;;;;;;24.83;14.82;;;;;;;10.92;97.61;102046.63;4814843;29;20101;-83
2021/10/26 10:21:47;;;;;;;32.55;15.27;;;;;;;10.94;97.37;102051.84;4848481;29;20041;-83
2021/10/26 10:24:17;;;;;;;31.23;16.10;;;;;;;10.97;97.66;102049.16;4842994;29;20040;-83
2021/10/26 10:26:43;;;;;;;28.60;16.38;;;;;;;11.03;97.59;102048.16;4816633;29;20037;-83
2021/10/26 10:29:08;;;;;;;36.90;16.50;;;;;;;11.10;97.34;102044.50;4848958;29;20053;-82
2021/10/26 10:31:35;;;;;;;28.23;16.10;;;;;;;11.13;97.37;102055.78;4828439;29;20025;-82
2021/10/26 10:34:01;;;;;;;25.63;14.98;;;;;;;11.16;97.13;102041.72;4840774;29;20044;-83
2021/10/26 10:36:27;;;;;;;28.30;16.33;;;;;;;11.21;96.99;102042.47;4833410;29;20351;-82
2021/10/26 10:38:56;;;;;;;26.20;15.75;;;;;;;11.24;96.99;102041.53;4834827;29;20045;-83
2021/10/26 10:41:43;;;;;;;26.30;16.13;;;;;;;11.27;96.78;102044.94;4848496;29;20488;-83
2021/10/26 10:44:21;;;;;;;26.23;14.93;;;;;;;11.32;96.72;102045.69;4849557;29;20324;-84
2021/10/26 10:46:48;;;;;;;25.10;14.83;;;;;;;11.35;96.63;102042.16;4866223;29;20108;-83
2021/10/26 10:49:19;;;;;;;30.77;14.95;;;;;;;11.39;96.48;102045.53;4833973;29;20105;-83
2021/10/26 10:52:08;;;;;;;25.90;14.68;;;;;;;11.42;96.03;102034.97;4866958;29;20033;-83
2021/10/26 10:54:37;;;;;;;21.85;12.50;;;;;;;11.42;96.15;102042.84;4833249;29;20039;-82
2021/10/26 10:57:35;;;;;;;28.27;12.13;;;;;;;11.43;95.66;102042.81;4860032;29;20417;-83
2021/10/26 11:00:12;;;;;;;17.73;11.43;;;;;;;11.44;95.40;102044.53;4846447;29;20037;-83
2021/10/26 11:02:40;;;;;;;25.77;12.05;;;;;;;11.45;95.02;102046.25;4842892;29;20364;-83
2021/10/26 11:05:06;;;;;;;25.45;10.40;;;;;;;11.45;95.00;102045.38;4856932;29;20400;-84
2021/10/26 11:07:44;;;;;;;19.15;9.90;;;;;;;11.48;95.15;102055.81;4814627;29;20067;-83
2021/10/26 11:10:10;;;;;;;26.35;10.30;;;;;;;11.49;95.13;102047.88;4842969;29;20042;-83
2021/10/26 11:12:36;;;;;;;21.85;10.23;;;;;;;11.49;94.84;102047.88;4844642;29;20040;-83
2021/10/26 11:15:09;;;;;;;19.02;9.82;;;;;;;11.50;94.68;102051.38;4832180;29;20241;-83
2021/10/26 11:17:35;;;;;;;24.40;9.73;;;;;;;11.50;94.83;102043.53;4828717;29;20037;-83
2021/10/26 11:20:01;;;;;;;20.08;9.77;;;;;;;11.51;94.93;102045.22;4860033;29;20037;-83
2021/10/26 11:22:48;;;;;;;26.17;10.57;;;;;;;11.52;95.21;102052.22;4845473;29;20345;-83
2021/10/26 11:25:29;;;;;;;20.90;9.70;;;;;;;11.50;94.94;102039.13;4863638;29;20049;-83
2021/10/26 11:27:57;;;;;;;27.10;10.60;;;;;;;11.50;94.75;102036.50;4857850;29;20357;-84